<?xml version="1.0" encoding="UTF-8" standalone="no" ?>
<gpx xmlns="http://www.topografix.com/GPX/1/1" xmlns:xsi="http://www.w3.org/2001/XMLSchema-instance" xsi:schemaLocation="http://www.topografix.com/GPX/1/1 http://www.topografix.com/GPX/1/1/gpx.xsd" version="1.1" creator="VisuGPX - https://www.visugpx.com">
  <metadata>
    <name>Méjanes le clap - La Table des Turcs</name>
    <desc><![CDATA[Chemin de randonnée facile pour tous]]></desc>
  </metadata>
  <trk>
    <name><![CDATA[La Table des Turcs]]></name>
    <extensions>
      <line xmlns="http://www.topografix.com/GPX/gpx_style/0/2">
        <color>0000FF</color>
        <width>4</width>
      </line>
    </extensions>
    <trkseg>
      <trkpt lat="44.22593" lon="4.35027">
        <ele>301</ele>
        <time>2024-04-09T11:00:01+02:00</time>
      </trkpt>
      <trkpt lat="44.22539" lon="4.35066">
        <ele>303</ele>
        <time>2024-04-09T11:00:20+02:00</time>
      </trkpt>
      <trkpt lat="44.2254" lon="4.35102">
        <ele>303</ele>
        <time>2024-04-09T11:00:39+02:00</time>
      </trkpt>
      <trkpt lat="44.22542" lon="4.3514">
        <ele>303</ele>
        <time>2024-04-09T11:01:03+02:00</time>
      </trkpt>
      <trkpt lat="44.2254" lon="4.35174">
        <ele>303</ele>
        <time>2024-04-09T11:01:45+02:00</time>
      </trkpt>
      <trkpt lat="44.2253" lon="4.35213">
        <ele>303</ele>
        <time>2024-04-09T11:02:08+02:00</time>
      </trkpt>
      <trkpt lat="44.22532" lon="4.35246">
        <ele>303</ele>
        <time>2024-04-09T11:02:27+02:00</time>
      </trkpt>
      <trkpt lat="44.22536" lon="4.35281">
        <ele>302</ele>
        <time>2024-04-09T11:03:00+02:00</time>
      </trkpt>
      <trkpt lat="44.22545" lon="4.35308">
        <ele>301</ele>
        <time>2024-04-09T11:03:19+02:00</time>
      </trkpt>
      <trkpt lat="44.22555" lon="4.35338">
        <ele>300</ele>
        <time>2024-04-09T11:03:43+02:00</time>
      </trkpt>
      <trkpt lat="44.22572" lon="4.35375">
        <ele>301</ele>
        <time>2024-04-09T11:03:58+02:00</time>
      </trkpt>
      <trkpt lat="44.22638" lon="4.35469">
        <ele>301</ele>
        <time>2024-04-09T11:05:16+02:00</time>
      </trkpt>
      <trkpt lat="44.22669" lon="4.35539">
        <ele>299</ele>
        <time>2024-04-09T11:06:04+02:00</time>
      </trkpt>
      <trkpt lat="44.22682" lon="4.35607">
        <ele>299</ele>
        <time>2024-04-09T11:06:52+02:00</time>
      </trkpt>
      <trkpt lat="44.22681" lon="4.35646">
        <ele>299</ele>
        <time>2024-04-09T11:07:16+02:00</time>
      </trkpt>
      <trkpt lat="44.227" lon="4.35673">
        <ele>300</ele>
        <time>2024-04-09T11:07:40+02:00</time>
      </trkpt>
      <trkpt lat="44.22715" lon="4.35712">
        <ele>299</ele>
        <time>2024-04-09T11:08:04+02:00</time>
      </trkpt>
      <trkpt lat="44.22698" lon="4.35746">
        <ele>298</ele>
        <time>2024-04-09T11:08:28+02:00</time>
      </trkpt>
      <trkpt lat="44.22703" lon="4.35782">
        <ele>299</ele>
        <time>2024-04-09T11:08:52+02:00</time>
      </trkpt>
      <trkpt lat="44.22712" lon="4.35817">
        <ele>299</ele>
        <time>2024-04-09T11:09:16+02:00</time>
      </trkpt>
      <trkpt lat="44.22724" lon="4.3585">
        <ele>299</ele>
        <time>2024-04-09T11:09:40+02:00</time>
      </trkpt>
      <trkpt lat="44.22734" lon="4.35882">
        <ele>299</ele>
        <time>2024-04-09T11:10:04+02:00</time>
      </trkpt>
      <trkpt lat="44.22748" lon="4.35902">
        <ele>300</ele>
        <time>2024-04-09T11:10:28+02:00</time>
      </trkpt>
      <trkpt lat="44.22762" lon="4.35935">
        <ele>300</ele>
        <time>2024-04-09T11:10:52+02:00</time>
      </trkpt>
      <trkpt lat="44.22759" lon="4.35982">
        <ele>300</ele>
        <time>2024-04-09T11:11:20+02:00</time>
      </trkpt>
      <trkpt lat="44.22741" lon="4.36002">
        <ele>300</ele>
        <time>2024-04-09T11:11:40+02:00</time>
      </trkpt>
      <trkpt lat="44.22722" lon="4.36018">
        <ele>300</ele>
        <time>2024-04-09T11:12:08+02:00</time>
      </trkpt>
      <trkpt lat="44.22726" lon="4.36037">
        <ele>299</ele>
        <time>2024-04-09T11:12:40+02:00</time>
      </trkpt>
      <trkpt lat="44.22742" lon="4.36053">
        <ele>299</ele>
        <time>2024-04-09T11:13:16+02:00</time>
      </trkpt>
      <trkpt lat="44.22748" lon="4.36076">
        <ele>298</ele>
        <time>2024-04-09T11:13:36+02:00</time>
      </trkpt>
      <trkpt lat="44.22767" lon="4.36094">
        <ele>298</ele>
        <time>2024-04-09T11:13:55+02:00</time>
      </trkpt>
      <trkpt lat="44.22776" lon="4.36131">
        <ele>297</ele>
        <time>2024-04-09T11:14:17+02:00</time>
      </trkpt>
      <trkpt lat="44.22786" lon="4.36157">
        <ele>296</ele>
        <time>2024-04-09T11:14:37+02:00</time>
      </trkpt>
      <trkpt lat="44.22808" lon="4.36171">
        <ele>296</ele>
        <time>2024-04-09T11:14:53+02:00</time>
      </trkpt>
      <trkpt lat="44.22824" lon="4.36199">
        <ele>295</ele>
        <time>2024-04-09T11:15:15+02:00</time>
      </trkpt>
      <trkpt lat="44.22845" lon="4.3622">
        <ele>295</ele>
        <time>2024-04-09T11:15:35+02:00</time>
      </trkpt>
      <trkpt lat="44.22862" lon="4.36246">
        <ele>294</ele>
        <time>2024-04-09T11:15:53+02:00</time>
      </trkpt>
      <trkpt lat="44.22883" lon="4.36268">
        <ele>294</ele>
        <time>2024-04-09T11:16:17+02:00</time>
      </trkpt>
      <trkpt lat="44.22899" lon="4.36299">
        <ele>293</ele>
        <time>2024-04-09T11:16:41+02:00</time>
      </trkpt>
      <trkpt lat="44.22884" lon="4.36329">
        <ele>292</ele>
        <time>2024-04-09T11:17:01+02:00</time>
      </trkpt>
      <trkpt lat="44.22871" lon="4.36341">
        <ele>293</ele>
        <time>2024-04-09T11:18:03+02:00</time>
      </trkpt>
      <trkpt lat="44.22856" lon="4.36374">
        <ele>293</ele>
        <time>2024-04-09T11:18:24+02:00</time>
      </trkpt>
      <trkpt lat="44.22841" lon="4.36403">
        <ele>293</ele>
        <time>2024-04-09T11:18:41+02:00</time>
      </trkpt>
      <trkpt lat="44.22819" lon="4.36424">
        <ele>293</ele>
        <time>2024-04-09T11:19:03+02:00</time>
      </trkpt>
      <trkpt lat="44.22791" lon="4.36434">
        <ele>294</ele>
        <time>2024-04-09T11:19:23+02:00</time>
      </trkpt>
      <trkpt lat="44.22772" lon="4.36458">
        <ele>294</ele>
        <time>2024-04-09T11:19:42+02:00</time>
      </trkpt>
      <trkpt lat="44.22754" lon="4.36488">
        <ele>294</ele>
        <time>2024-04-09T11:20:11+02:00</time>
      </trkpt>
      <trkpt lat="44.22738" lon="4.36518">
        <ele>294</ele>
        <time>2024-04-09T11:20:39+02:00</time>
      </trkpt>
      <trkpt lat="44.22718" lon="4.36537">
        <ele>295</ele>
        <time>2024-04-09T11:20:57+02:00</time>
      </trkpt>
      <trkpt lat="44.22707" lon="4.36568">
        <ele>295</ele>
        <time>2024-04-09T11:22:21+02:00</time>
      </trkpt>
      <trkpt lat="44.22696" lon="4.36585">
        <ele>295</ele>
        <time>2024-04-09T11:25:06+02:00</time>
      </trkpt>
      <trkpt lat="44.22673" lon="4.36588">
        <ele>296</ele>
        <time>2024-04-09T11:25:20+02:00</time>
      </trkpt>
      <trkpt lat="44.22649" lon="4.36591">
        <ele>297</ele>
        <time>2024-04-09T11:25:34+02:00</time>
      </trkpt>
      <trkpt lat="44.22624" lon="4.36601">
        <ele>298</ele>
        <time>2024-04-09T11:25:54+02:00</time>
      </trkpt>
      <trkpt lat="44.22605" lon="4.36628">
        <ele>300</ele>
        <time>2024-04-09T11:26:17+02:00</time>
      </trkpt>
      <trkpt lat="44.2258" lon="4.36645">
        <ele>302</ele>
        <time>2024-04-09T11:26:48+02:00</time>
      </trkpt>
      <trkpt lat="44.22558" lon="4.36659">
        <ele>302</ele>
        <time>2024-04-09T11:27:05+02:00</time>
      </trkpt>
      <trkpt lat="44.22532" lon="4.36661">
        <ele>303</ele>
        <time>2024-04-09T11:27:35+02:00</time>
      </trkpt>
      <trkpt lat="44.22505" lon="4.36672">
        <ele>304</ele>
        <time>2024-04-09T11:27:59+02:00</time>
      </trkpt>
      <trkpt lat="44.2248" lon="4.3668">
        <ele>303</ele>
        <time>2024-04-09T11:28:17+02:00</time>
      </trkpt>
      <trkpt lat="44.22485" lon="4.3672">
        <ele>303</ele>
        <time>2024-04-09T11:28:44+02:00</time>
      </trkpt>
      <trkpt lat="44.22475" lon="4.36771">
        <ele>301</ele>
        <time>2024-04-09T11:29:14+02:00</time>
      </trkpt>
      <trkpt lat="44.22454" lon="4.36781">
        <ele>301</ele>
        <time>2024-04-09T11:29:35+02:00</time>
      </trkpt>
      <trkpt lat="44.22441" lon="4.36749">
        <ele>302</ele>
        <time>2024-04-09T11:31:02+02:00</time>
      </trkpt>
      <trkpt lat="44.22411" lon="4.36716">
        <ele>302</ele>
        <time>2024-04-09T11:31:20+02:00</time>
      </trkpt>
      <trkpt lat="44.22395" lon="4.36728">
        <ele>301</ele>
        <time>2024-04-09T11:31:39+02:00</time>
      </trkpt>
      <trkpt lat="44.22365" lon="4.36732">
        <ele>301</ele>
        <time>2024-04-09T11:31:59+02:00</time>
      </trkpt>
      <trkpt lat="44.22342" lon="4.3674">
        <ele>300</ele>
        <time>2024-04-09T11:32:23+02:00</time>
      </trkpt>
      <trkpt lat="44.22312" lon="4.36737">
        <ele>300</ele>
        <time>2024-04-09T11:32:47+02:00</time>
      </trkpt>
      <trkpt lat="44.22288" lon="4.36731">
        <ele>299</ele>
        <time>2024-04-09T11:33:11+02:00</time>
      </trkpt>
      <trkpt lat="44.22278" lon="4.36762">
        <ele>299</ele>
        <time>2024-04-09T11:33:55+02:00</time>
      </trkpt>
      <trkpt lat="44.2228" lon="4.36789">
        <ele>299</ele>
        <time>2024-04-09T11:34:31+02:00</time>
      </trkpt>
      <trkpt lat="44.22266" lon="4.36831">
        <ele>298</ele>
        <time>2024-04-09T11:35:32+02:00</time>
      </trkpt>
      <trkpt lat="44.22255" lon="4.36886">
        <ele>298</ele>
      </trkpt>
      <trkpt lat="44.22219" lon="4.36932">
        <ele>298</ele>
        <time>2024-04-09T11:38:01+02:00</time>
      </trkpt>
      <trkpt lat="44.22199" lon="4.36966">
        <ele>298</ele>
        <time>2024-04-09T11:38:05+02:00</time>
      </trkpt>
      <trkpt lat="44.22182" lon="4.36991">
        <ele>298</ele>
        <time>2024-04-09T11:38:22+02:00</time>
      </trkpt>
      <trkpt lat="44.22167" lon="4.37017">
        <ele>298</ele>
        <time>2024-04-09T11:38:44+02:00</time>
      </trkpt>
      <trkpt lat="44.22144" lon="4.37041">
        <ele>298</ele>
        <time>2024-04-09T11:39:08+02:00</time>
      </trkpt>
      <trkpt lat="44.22124" lon="4.3706">
        <ele>298</ele>
        <time>2024-04-09T11:39:26+02:00</time>
      </trkpt>
      <trkpt lat="44.22105" lon="4.3708">
        <ele>298</ele>
        <time>2024-04-09T11:39:44+02:00</time>
      </trkpt>
      <trkpt lat="44.22088" lon="4.37106">
        <ele>298</ele>
        <time>2024-04-09T11:40:08+02:00</time>
      </trkpt>
      <trkpt lat="44.22078" lon="4.37144">
        <ele>298</ele>
        <time>2024-04-09T11:40:32+02:00</time>
      </trkpt>
      <trkpt lat="44.22059" lon="4.37163">
        <ele>299</ele>
        <time>2024-04-09T11:41:14+02:00</time>
      </trkpt>
      <trkpt lat="44.22058" lon="4.37192">
        <ele>299</ele>
        <time>2024-04-09T11:42:43+02:00</time>
      </trkpt>
      <trkpt lat="44.22049" lon="4.37219">
        <ele>299</ele>
        <time>2024-04-09T11:44:05+02:00</time>
      </trkpt>
      <trkpt lat="44.2204" lon="4.37259">
        <ele>300</ele>
        <time>2024-04-09T11:44:26+02:00</time>
      </trkpt>
      <trkpt lat="44.22039" lon="4.37296">
        <ele>300</ele>
        <time>2024-04-09T11:46:27+02:00</time>
      </trkpt>
      <trkpt lat="44.22039" lon="4.37332">
        <ele>301</ele>
        <time>2024-04-09T11:46:46+02:00</time>
      </trkpt>
      <trkpt lat="44.22029" lon="4.37408">
        <ele>301</ele>
      </trkpt>
      <trkpt lat="44.22015" lon="4.37467">
        <ele>301</ele>
        <time>2024-04-09T11:49:18+02:00</time>
      </trkpt>
      <trkpt lat="44.22007" lon="4.37498">
        <ele>301</ele>
        <time>2024-04-09T11:49:52+02:00</time>
      </trkpt>
      <trkpt lat="44.22003" lon="4.37517">
        <ele>301</ele>
        <time>2024-04-09T11:50:06+02:00</time>
      </trkpt>
      <trkpt lat="44.21983" lon="4.37514">
        <ele>301</ele>
        <time>2024-04-09T11:51:22+02:00</time>
      </trkpt>
      <trkpt lat="44.21962" lon="4.37508">
        <ele>300</ele>
        <time>2024-04-09T11:51:33+02:00</time>
      </trkpt>
      <trkpt lat="44.2193" lon="4.37528">
        <ele>300</ele>
        <time>2024-04-09T11:51:52+02:00</time>
      </trkpt>
      <trkpt lat="44.2191" lon="4.37544">
        <ele>300</ele>
        <time>2024-04-09T11:52:04+02:00</time>
      </trkpt>
      <trkpt lat="44.21889" lon="4.37565">
        <ele>300</ele>
        <time>2024-04-09T11:52:28+02:00</time>
      </trkpt>
      <trkpt lat="44.21871" lon="4.37587">
        <ele>301</ele>
        <time>2024-04-09T11:52:52+02:00</time>
      </trkpt>
      <trkpt lat="44.21842" lon="4.37579">
        <ele>300</ele>
        <time>2024-04-09T11:53:10+02:00</time>
      </trkpt>
      <trkpt lat="44.21817" lon="4.37576">
        <ele>300</ele>
        <time>2024-04-09T11:53:28+02:00</time>
      </trkpt>
      <trkpt lat="44.21792" lon="4.37572">
        <ele>300</ele>
        <time>2024-04-09T11:53:46+02:00</time>
      </trkpt>
      <trkpt lat="44.21766" lon="4.37558">
        <ele>299</ele>
        <time>2024-04-09T11:54:13+02:00</time>
      </trkpt>
      <trkpt lat="44.21745" lon="4.3757">
        <ele>300</ele>
        <time>2024-04-09T11:54:49+02:00</time>
      </trkpt>
      <trkpt lat="44.21746" lon="4.37558">
        <ele>299</ele>
        <time>2024-04-09T11:57:48+02:00</time>
      </trkpt>
      <trkpt lat="44.2172" lon="4.37554">
        <ele>299</ele>
        <time>2024-04-09T11:58:46+02:00</time>
      </trkpt>
      <trkpt lat="44.21699" lon="4.37559">
        <ele>299</ele>
        <time>2024-04-09T11:59:00+02:00</time>
      </trkpt>
      <trkpt lat="44.21674" lon="4.37569">
        <ele>300</ele>
        <time>2024-04-09T11:59:14+02:00</time>
      </trkpt>
      <trkpt lat="44.21647" lon="4.37595">
        <ele>300</ele>
        <time>2024-04-09T11:59:36+02:00</time>
      </trkpt>
      <trkpt lat="44.21636" lon="4.37617">
        <ele>301</ele>
        <time>2024-04-09T12:00:04+02:00</time>
      </trkpt>
      <trkpt lat="44.21615" lon="4.37637">
        <ele>301</ele>
        <time>2024-04-09T12:00:46+02:00</time>
      </trkpt>
      <trkpt lat="44.21586" lon="4.37657">
        <ele>302</ele>
        <time>2024-04-09T12:01:11+02:00</time>
      </trkpt>
      <trkpt lat="44.21574" lon="4.37677">
        <ele>303</ele>
        <time>2024-04-09T12:01:35+02:00</time>
      </trkpt>
      <trkpt lat="44.21555" lon="4.37703">
        <ele>304</ele>
        <time>2024-04-09T12:02:00+02:00</time>
      </trkpt>
      <trkpt lat="44.21539" lon="4.3772">
        <ele>305</ele>
        <time>2024-04-09T12:02:20+02:00</time>
      </trkpt>
      <trkpt lat="44.2152" lon="4.37733">
        <ele>306</ele>
        <time>2024-04-09T12:02:59+02:00</time>
      </trkpt>
      <trkpt lat="44.21492" lon="4.37751">
        <ele>306</ele>
        <time>2024-04-09T12:04:11+02:00</time>
      </trkpt>
      <trkpt lat="44.21478" lon="4.3776">
        <ele>307</ele>
        <time>2024-04-09T12:04:30+02:00</time>
      </trkpt>
      <trkpt lat="44.21473" lon="4.37783">
        <ele>307</ele>
        <time>2024-04-09T12:04:53+02:00</time>
      </trkpt>
      <trkpt lat="44.21474" lon="4.37804">
        <ele>308</ele>
      </trkpt>
      <trkpt lat="44.21472" lon="4.37836">
        <ele>308</ele>
      </trkpt>
      <trkpt lat="44.21447" lon="4.37861">
        <ele>307</ele>
        <time>2024-04-09T12:05:12+02:00</time>
      </trkpt>
      <trkpt lat="44.21457" lon="4.37954">
        <ele>309</ele>
        <time>2024-04-09T12:06:34+02:00</time>
      </trkpt>
      <trkpt lat="44.21478" lon="4.38081">
        <ele>311</ele>
        <time>2024-04-09T12:07:56+02:00</time>
      </trkpt>
      <trkpt lat="44.21518" lon="4.38185">
        <ele>311</ele>
        <time>2024-04-09T12:08:56+02:00</time>
      </trkpt>
      <trkpt lat="44.21531" lon="4.38216">
        <ele>312</ele>
        <time>2024-04-09T12:09:20+02:00</time>
      </trkpt>
      <trkpt lat="44.21544" lon="4.38243">
        <ele>312</ele>
        <time>2024-04-09T12:09:38+02:00</time>
      </trkpt>
      <trkpt lat="44.21561" lon="4.38275">
        <ele>312</ele>
        <time>2024-04-09T12:10:02+02:00</time>
      </trkpt>
      <trkpt lat="44.21572" lon="4.38305">
        <ele>312</ele>
        <time>2024-04-09T12:10:20+02:00</time>
      </trkpt>
      <trkpt lat="44.2159" lon="4.38336">
        <ele>312</ele>
        <time>2024-04-09T12:10:44+02:00</time>
      </trkpt>
      <trkpt lat="44.21599" lon="4.38356">
        <ele>312</ele>
        <time>2024-04-09T12:11:07+02:00</time>
      </trkpt>
      <trkpt lat="44.21585" lon="4.38397">
        <ele>313</ele>
        <time>2024-04-09T12:11:26+02:00</time>
      </trkpt>
      <trkpt lat="44.21571" lon="4.38377">
        <ele>313</ele>
        <time>2024-04-09T12:13:42+02:00</time>
      </trkpt>
      <trkpt lat="44.21569" lon="4.38338">
        <ele>312</ele>
        <time>2024-04-09T12:14:06+02:00</time>
      </trkpt>
      <trkpt lat="44.21563" lon="4.38287">
        <ele>312</ele>
        <time>2024-04-09T12:15:07+02:00</time>
      </trkpt>
      <trkpt lat="44.21548" lon="4.38255">
        <ele>312</ele>
        <time>2024-04-09T12:15:21+02:00</time>
      </trkpt>
      <trkpt lat="44.21476" lon="4.38088">
        <ele>311</ele>
      </trkpt>
      <trkpt lat="44.21454" lon="4.3793">
        <ele>308</ele>
        <time>2024-04-09T12:18:26+02:00</time>
      </trkpt>
      <trkpt lat="44.21448" lon="4.37886">
        <ele>308</ele>
        <time>2024-04-09T12:18:50+02:00</time>
      </trkpt>
      <trkpt lat="44.21441" lon="4.3787">
        <ele>307</ele>
        <time>2024-04-09T12:20:59+02:00</time>
      </trkpt>
      <trkpt lat="44.2142" lon="4.37913">
        <ele>306</ele>
        <time>2024-04-09T12:21:28+02:00</time>
      </trkpt>
      <trkpt lat="44.21399" lon="4.3793">
        <ele>306</ele>
        <time>2024-04-09T12:21:47+02:00</time>
      </trkpt>
      <trkpt lat="44.21379" lon="4.37948">
        <ele>305</ele>
        <time>2024-04-09T12:22:23+02:00</time>
      </trkpt>
      <trkpt lat="44.21357" lon="4.37926">
        <ele>304</ele>
        <time>2024-04-09T12:22:47+02:00</time>
      </trkpt>
      <trkpt lat="44.21323" lon="4.37947">
        <ele>303</ele>
        <time>2024-04-09T12:23:23+02:00</time>
      </trkpt>
      <trkpt lat="44.21309" lon="4.37968">
        <ele>303</ele>
        <time>2024-04-09T12:23:47+02:00</time>
      </trkpt>
      <trkpt lat="44.21294" lon="4.37997">
        <ele>302</ele>
        <time>2024-04-09T12:24:12+02:00</time>
      </trkpt>
      <trkpt lat="44.21275" lon="4.38007">
        <ele>301</ele>
        <time>2024-04-09T12:25:15+02:00</time>
      </trkpt>
      <trkpt lat="44.21254" lon="4.3802">
        <ele>299</ele>
        <time>2024-04-09T12:25:29+02:00</time>
      </trkpt>
      <trkpt lat="44.2123" lon="4.38045">
        <ele>298</ele>
        <time>2024-04-09T12:25:48+02:00</time>
      </trkpt>
      <trkpt lat="44.21211" lon="4.38056">
        <ele>297</ele>
        <time>2024-04-09T12:26:24+02:00</time>
      </trkpt>
      <trkpt lat="44.21191" lon="4.38067">
        <ele>296</ele>
        <time>2024-04-09T12:26:57+02:00</time>
      </trkpt>
      <trkpt lat="44.21169" lon="4.38085">
        <ele>294</ele>
        <time>2024-04-09T12:27:12+02:00</time>
      </trkpt>
      <trkpt lat="44.21147" lon="4.38104">
        <ele>294</ele>
        <time>2024-04-09T12:27:31+02:00</time>
      </trkpt>
      <trkpt lat="44.21123" lon="4.38124">
        <ele>293</ele>
        <time>2024-04-09T12:27:46+02:00</time>
      </trkpt>
      <trkpt lat="44.21087" lon="4.38158">
        <ele>290</ele>
        <time>2024-04-09T12:28:26+02:00</time>
      </trkpt>
      <trkpt lat="44.21062" lon="4.38187">
        <ele>290</ele>
        <time>2024-04-09T12:28:52+02:00</time>
      </trkpt>
      <trkpt lat="44.21007" lon="4.38215">
        <ele>288</ele>
        <time>2024-04-09T12:30:20+02:00</time>
      </trkpt>
      <trkpt lat="44.20965" lon="4.38243">
        <ele>287</ele>
        <time>2024-04-09T12:30:38+02:00</time>
      </trkpt>
      <trkpt lat="44.20933" lon="4.38271">
        <ele>286</ele>
        <time>2024-04-09T12:30:55+02:00</time>
      </trkpt>
      <trkpt lat="44.20914" lon="4.38288">
        <ele>285</ele>
        <time>2024-04-09T12:31:20+02:00</time>
      </trkpt>
      <trkpt lat="44.209" lon="4.383">
        <ele>284</ele>
        <time>2024-04-09T12:31:38+02:00</time>
      </trkpt>
      <trkpt lat="44.20878" lon="4.38311">
        <ele>283</ele>
        <time>2024-04-09T12:31:56+02:00</time>
      </trkpt>
      <trkpt lat="44.20851" lon="4.38312">
        <ele>281</ele>
        <time>2024-04-09T12:32:20+02:00</time>
      </trkpt>
      <trkpt lat="44.20824" lon="4.38316">
        <ele>279</ele>
        <time>2024-04-09T12:32:44+02:00</time>
      </trkpt>
      <trkpt lat="44.20799" lon="4.38301">
        <ele>277</ele>
        <time>2024-04-09T12:33:05+02:00</time>
      </trkpt>
      <trkpt lat="44.2077" lon="4.383">
        <ele>274</ele>
        <time>2024-04-09T12:33:26+02:00</time>
      </trkpt>
      <trkpt lat="44.20746" lon="4.38257">
        <ele>272</ele>
        <time>2024-04-09T12:33:50+02:00</time>
      </trkpt>
      <trkpt lat="44.20711" lon="4.38288">
        <ele>274</ele>
        <time>2024-04-09T12:34:20+02:00</time>
      </trkpt>
      <trkpt lat="44.20695" lon="4.38331">
        <ele>272</ele>
        <time>2024-04-09T12:34:50+02:00</time>
      </trkpt>
      <trkpt lat="44.20695" lon="4.38376">
        <ele>270</ele>
        <time>2024-04-09T12:35:20+02:00</time>
      </trkpt>
      <trkpt lat="44.20676" lon="4.384">
        <ele>268</ele>
        <time>2024-04-09T12:35:59+02:00</time>
      </trkpt>
      <trkpt lat="44.20661" lon="4.38406">
        <ele>267</ele>
        <time>2024-04-09T12:36:20+02:00</time>
      </trkpt>
      <trkpt lat="44.20642" lon="4.38413">
        <ele>267</ele>
        <time>2024-04-09T12:36:44+02:00</time>
      </trkpt>
      <trkpt lat="44.20623" lon="4.38418">
        <ele>267</ele>
        <time>2024-04-09T12:37:30+02:00</time>
      </trkpt>
      <trkpt lat="44.20605" lon="4.38417">
        <ele>267</ele>
        <time>2024-04-09T12:37:44+02:00</time>
      </trkpt>
      <trkpt lat="44.20597" lon="4.38408">
        <ele>269</ele>
      </trkpt>
      <trkpt lat="44.20606" lon="4.38397">
        <ele>270</ele>
      </trkpt>
      <trkpt lat="44.20603" lon="4.38386">
        <ele>272</ele>
      </trkpt>
      <trkpt lat="44.2061" lon="4.38359">
        <ele>275</ele>
        <time>2024-04-09T12:40:11+02:00</time>
      </trkpt>
      <trkpt lat="44.20594" lon="4.38337">
        <ele>279</ele>
        <time>2024-04-09T12:41:06+02:00</time>
      </trkpt>
      <trkpt lat="44.2058" lon="4.3831">
        <ele>284</ele>
        <time>2024-04-09T12:43:46+02:00</time>
      </trkpt>
      <trkpt lat="44.20578" lon="4.38293">
        <ele>286</ele>
      </trkpt>
      <trkpt lat="44.20559" lon="4.38299">
        <ele>286</ele>
        <time>2024-04-09T12:46:01+02:00</time>
      </trkpt>
      <trkpt lat="44.20538" lon="4.38307">
        <ele>286</ele>
        <time>2024-04-09T12:52:17+02:00</time>
      </trkpt>
      <trkpt lat="44.20523" lon="4.38309">
        <ele>287</ele>
        <time>2024-04-09T12:52:47+02:00</time>
      </trkpt>
      <trkpt lat="44.20515" lon="4.38297">
        <ele>289</ele>
        <time>2024-04-09T12:56:14+02:00</time>
      </trkpt>
      <trkpt lat="44.20489" lon="4.38278">
        <ele>291</ele>
        <time>2024-04-09T12:57:17+02:00</time>
      </trkpt>
      <trkpt lat="44.20468" lon="4.38243">
        <ele>293</ele>
      </trkpt>
      <trkpt lat="44.20473" lon="4.38224">
        <ele>295</ele>
      </trkpt>
      <trkpt lat="44.20491" lon="4.38219">
        <ele>297</ele>
      </trkpt>
      <trkpt lat="44.20506" lon="4.38196">
        <ele>299</ele>
        <time>2024-04-09T12:58:53+02:00</time>
      </trkpt>
      <trkpt lat="44.20491" lon="4.3815">
        <ele>301</ele>
        <time>2024-04-09T12:59:11+02:00</time>
      </trkpt>
      <trkpt lat="44.20484" lon="4.38118">
        <ele>301</ele>
      </trkpt>
      <trkpt lat="44.20488" lon="4.38091">
        <ele>302</ele>
        <time>2024-04-09T12:59:37+02:00</time>
      </trkpt>
      <trkpt lat="44.20483" lon="4.38076">
        <ele>302</ele>
      </trkpt>
      <trkpt lat="44.20469" lon="4.38068">
        <ele>302</ele>
      </trkpt>
      <trkpt lat="44.20445" lon="4.38057">
        <ele>301</ele>
        <time>2024-04-09T12:59:55+02:00</time>
      </trkpt>
      <trkpt lat="44.20421" lon="4.38048">
        <ele>301</ele>
        <time>2024-04-09T13:00:23+02:00</time>
      </trkpt>
      <trkpt lat="44.20395" lon="4.38043">
        <ele>300</ele>
        <time>2024-04-09T13:00:47+02:00</time>
      </trkpt>
      <trkpt lat="44.20368" lon="4.38023">
        <ele>301</ele>
        <time>2024-04-09T13:01:05+02:00</time>
      </trkpt>
      <trkpt lat="44.20346" lon="4.38016">
        <ele>301</ele>
        <time>2024-04-09T13:01:29+02:00</time>
      </trkpt>
      <trkpt lat="44.20344" lon="4.37983">
        <ele>301</ele>
        <time>2024-04-09T13:01:59+02:00</time>
      </trkpt>
      <trkpt lat="44.20323" lon="4.37958">
        <ele>301</ele>
        <time>2024-04-09T13:02:23+02:00</time>
      </trkpt>
      <trkpt lat="44.20301" lon="4.37932">
        <ele>301</ele>
        <time>2024-04-09T13:02:54+02:00</time>
      </trkpt>
      <trkpt lat="44.20269" lon="4.37913">
        <ele>301</ele>
        <time>2024-04-09T13:04:54+02:00</time>
      </trkpt>
      <trkpt lat="44.20245" lon="4.37889">
        <ele>301</ele>
        <time>2024-04-09T13:05:08+02:00</time>
      </trkpt>
      <trkpt lat="44.20225" lon="4.3787">
        <ele>301</ele>
        <time>2024-04-09T13:05:47+02:00</time>
      </trkpt>
      <trkpt lat="44.20225" lon="4.37847">
        <ele>301</ele>
      </trkpt>
      <trkpt lat="44.20229" lon="4.37821">
        <ele>302</ele>
        <time>2024-04-09T13:06:30+02:00</time>
      </trkpt>
      <trkpt lat="44.20227" lon="4.37786">
        <ele>302</ele>
        <time>2024-04-09T13:07:20+02:00</time>
      </trkpt>
      <trkpt lat="44.20238" lon="4.37755">
        <ele>303</ele>
        <time>2024-04-09T13:09:24+02:00</time>
      </trkpt>
      <trkpt lat="44.20243" lon="4.37731">
        <ele>303</ele>
        <time>2024-04-09T13:09:38+02:00</time>
      </trkpt>
      <trkpt lat="44.20239" lon="4.37708">
        <ele>303</ele>
        <time>2024-04-09T13:10:02+02:00</time>
      </trkpt>
      <trkpt lat="44.20244" lon="4.37665">
        <ele>303</ele>
        <time>2024-04-09T13:11:24+02:00</time>
      </trkpt>
      <trkpt lat="44.20269" lon="4.37673">
        <ele>303</ele>
        <time>2024-04-09T13:11:39+02:00</time>
      </trkpt>
      <trkpt lat="44.20289" lon="4.37684">
        <ele>302</ele>
        <time>2024-04-09T13:11:59+02:00</time>
      </trkpt>
      <trkpt lat="44.20306" lon="4.37681">
        <ele>302</ele>
        <time>2024-04-09T13:12:13+02:00</time>
      </trkpt>
      <trkpt lat="44.20342" lon="4.37686">
        <ele>300</ele>
        <time>2024-04-09T13:12:52+02:00</time>
      </trkpt>
      <trkpt lat="44.20355" lon="4.37685">
        <ele>300</ele>
        <time>2024-04-09T13:14:38+02:00</time>
      </trkpt>
      <trkpt lat="44.20376" lon="4.37697">
        <ele>298</ele>
        <time>2024-04-09T13:14:58+02:00</time>
      </trkpt>
      <trkpt lat="44.20404" lon="4.37703">
        <ele>297</ele>
        <time>2024-04-09T13:15:22+02:00</time>
      </trkpt>
      <trkpt lat="44.20433" lon="4.3771">
        <ele>295</ele>
        <time>2024-04-09T13:15:46+02:00</time>
      </trkpt>
      <trkpt lat="44.20447" lon="4.37723">
        <ele>293</ele>
        <time>2024-04-09T13:16:09+02:00</time>
      </trkpt>
      <trkpt lat="44.20469" lon="4.37753">
        <ele>290</ele>
        <time>2024-04-09T13:16:33+02:00</time>
      </trkpt>
      <trkpt lat="44.20477" lon="4.37771">
        <ele>290</ele>
        <time>2024-04-09T13:16:52+02:00</time>
      </trkpt>
      <trkpt lat="44.20495" lon="4.3777">
        <ele>289</ele>
        <time>2024-04-09T13:21:16+02:00</time>
      </trkpt>
      <trkpt lat="44.20507" lon="4.37759">
        <ele>288</ele>
        <time>2024-04-09T13:21:31+02:00</time>
      </trkpt>
      <trkpt lat="44.20515" lon="4.37736">
        <ele>288</ele>
        <time>2024-04-09T13:22:06+02:00</time>
      </trkpt>
      <trkpt lat="44.20539" lon="4.37713">
        <ele>288</ele>
        <time>2024-04-09T13:22:23+02:00</time>
      </trkpt>
      <trkpt lat="44.20572" lon="4.37669">
        <ele>287</ele>
        <time>2024-04-09T13:23:03+02:00</time>
      </trkpt>
      <trkpt lat="44.20611" lon="4.37646">
        <ele>287</ele>
        <time>2024-04-09T13:23:28+02:00</time>
      </trkpt>
      <trkpt lat="44.20638" lon="4.37621">
        <ele>288</ele>
      </trkpt>
      <trkpt lat="44.20647" lon="4.37598">
        <ele>288</ele>
        <time>2024-04-09T13:24:21+02:00</time>
      </trkpt>
      <trkpt lat="44.20669" lon="4.37579">
        <ele>288</ele>
        <time>2024-04-09T13:24:40+02:00</time>
      </trkpt>
      <trkpt lat="44.20679" lon="4.37549">
        <ele>290</ele>
        <time>2024-04-09T13:24:59+02:00</time>
      </trkpt>
      <trkpt lat="44.20694" lon="4.3752">
        <ele>291</ele>
        <time>2024-04-09T13:25:23+02:00</time>
      </trkpt>
      <trkpt lat="44.20704" lon="4.37486">
        <ele>292</ele>
        <time>2024-04-09T13:25:49+02:00</time>
      </trkpt>
      <trkpt lat="44.20713" lon="4.37448">
        <ele>292</ele>
        <time>2024-04-09T13:26:13+02:00</time>
      </trkpt>
      <trkpt lat="44.20729" lon="4.37436">
        <ele>292</ele>
        <time>2024-04-09T13:27:07+02:00</time>
      </trkpt>
      <trkpt lat="44.20745" lon="4.37408">
        <ele>291</ele>
        <time>2024-04-09T13:27:21+02:00</time>
      </trkpt>
      <trkpt lat="44.20749" lon="4.37379">
        <ele>289</ele>
        <time>2024-04-09T13:27:40+02:00</time>
      </trkpt>
      <trkpt lat="44.20752" lon="4.37355">
        <ele>288</ele>
        <time>2024-04-09T13:28:21+02:00</time>
      </trkpt>
      <trkpt lat="44.20759" lon="4.3732">
        <ele>287</ele>
        <time>2024-04-09T13:29:05+02:00</time>
      </trkpt>
      <trkpt lat="44.20767" lon="4.37292">
        <ele>287</ele>
        <time>2024-04-09T13:29:24+02:00</time>
      </trkpt>
      <trkpt lat="44.20771" lon="4.37258">
        <ele>286</ele>
        <time>2024-04-09T13:29:48+02:00</time>
      </trkpt>
      <trkpt lat="44.2079" lon="4.372">
        <ele>284</ele>
        <time>2024-04-09T13:30:23+02:00</time>
      </trkpt>
      <trkpt lat="44.20814" lon="4.3721">
        <ele>284</ele>
        <time>2024-04-09T13:31:09+02:00</time>
      </trkpt>
      <trkpt lat="44.20836" lon="4.3723">
        <ele>285</ele>
        <time>2024-04-09T13:31:28+02:00</time>
      </trkpt>
      <trkpt lat="44.20866" lon="4.37244">
        <ele>287</ele>
        <time>2024-04-09T13:32:17+02:00</time>
      </trkpt>
      <trkpt lat="44.20847" lon="4.37163">
        <ele>281</ele>
        <time>2024-04-09T13:32:36+02:00</time>
      </trkpt>
      <trkpt lat="44.20836" lon="4.37122">
        <ele>280</ele>
        <time>2024-04-09T13:32:56+02:00</time>
      </trkpt>
      <trkpt lat="44.2083" lon="4.371">
        <ele>279</ele>
        <time>2024-04-09T13:33:19+02:00</time>
      </trkpt>
      <trkpt lat="44.20827" lon="4.37075">
        <ele>279</ele>
        <time>2024-04-09T13:35:20+02:00</time>
      </trkpt>
      <trkpt lat="44.20822" lon="4.37047">
        <ele>279</ele>
        <time>2024-04-09T13:35:40+02:00</time>
      </trkpt>
      <trkpt lat="44.20815" lon="4.3702">
        <ele>278</ele>
        <time>2024-04-09T13:35:58+02:00</time>
      </trkpt>
      <trkpt lat="44.2082" lon="4.36975">
        <ele>278</ele>
        <time>2024-04-09T13:36:17+02:00</time>
      </trkpt>
      <trkpt lat="44.20825" lon="4.36959">
        <ele>278</ele>
        <time>2024-04-09T13:36:36+02:00</time>
      </trkpt>
      <trkpt lat="44.20826" lon="4.36937">
        <ele>277</ele>
        <time>2024-04-09T13:36:55+02:00</time>
      </trkpt>
      <trkpt lat="44.2085" lon="4.36905">
        <ele>278</ele>
        <time>2024-04-09T13:37:14+02:00</time>
      </trkpt>
      <trkpt lat="44.20861" lon="4.36854">
        <ele>279</ele>
        <time>2024-04-09T13:37:38+02:00</time>
      </trkpt>
      <trkpt lat="44.20857" lon="4.36807">
        <ele>281</ele>
        <time>2024-04-09T13:37:58+02:00</time>
      </trkpt>
      <trkpt lat="44.20833" lon="4.3676">
        <ele>281</ele>
        <time>2024-04-09T13:38:13+02:00</time>
      </trkpt>
      <trkpt lat="44.20812" lon="4.36734">
        <ele>280</ele>
        <time>2024-04-09T13:38:37+02:00</time>
      </trkpt>
      <trkpt lat="44.20794" lon="4.36711">
        <ele>280</ele>
        <time>2024-04-09T13:38:56+02:00</time>
      </trkpt>
      <trkpt lat="44.2078" lon="4.36683">
        <ele>281</ele>
        <time>2024-04-09T13:39:20+02:00</time>
      </trkpt>
      <trkpt lat="44.2075" lon="4.36666">
        <ele>280</ele>
        <time>2024-04-09T13:39:43+02:00</time>
      </trkpt>
      <trkpt lat="44.20734" lon="4.36657">
        <ele>280</ele>
        <time>2024-04-09T13:40:03+02:00</time>
      </trkpt>
      <trkpt lat="44.20719" lon="4.3664">
        <ele>280</ele>
        <time>2024-04-09T13:40:17+02:00</time>
      </trkpt>
      <trkpt lat="44.20708" lon="4.36621">
        <ele>280</ele>
        <time>2024-04-09T13:40:44+02:00</time>
      </trkpt>
      <trkpt lat="44.20699" lon="4.36613">
        <ele>280</ele>
        <time>2024-04-09T13:40:59+02:00</time>
      </trkpt>
      <trkpt lat="44.20701" lon="4.3659">
        <ele>280</ele>
        <time>2024-04-09T13:41:28+02:00</time>
      </trkpt>
      <trkpt lat="44.20705" lon="4.36565">
        <ele>280</ele>
        <time>2024-04-09T13:41:57+02:00</time>
      </trkpt>
      <trkpt lat="44.20721" lon="4.3653">
        <ele>280</ele>
        <time>2024-04-09T13:42:17+02:00</time>
      </trkpt>
      <trkpt lat="44.20757" lon="4.36502">
        <ele>282</ele>
        <time>2024-04-09T13:42:36+02:00</time>
      </trkpt>
      <trkpt lat="44.20763" lon="4.36487">
        <ele>282</ele>
        <time>2024-04-09T13:42:55+02:00</time>
      </trkpt>
      <trkpt lat="44.20784" lon="4.36459">
        <ele>283</ele>
        <time>2024-04-09T13:43:18+02:00</time>
      </trkpt>
      <trkpt lat="44.2081" lon="4.36441">
        <ele>285</ele>
        <time>2024-04-09T13:43:40+02:00</time>
      </trkpt>
      <trkpt lat="44.20833" lon="4.36419">
        <ele>286</ele>
        <time>2024-04-09T13:44:02+02:00</time>
      </trkpt>
      <trkpt lat="44.20858" lon="4.36403">
        <ele>287</ele>
        <time>2024-04-09T13:44:21+02:00</time>
      </trkpt>
      <trkpt lat="44.20882" lon="4.36396">
        <ele>289</ele>
        <time>2024-04-09T13:44:47+02:00</time>
      </trkpt>
      <trkpt lat="44.20912" lon="4.36379">
        <ele>292</ele>
        <time>2024-04-09T13:45:14+02:00</time>
      </trkpt>
      <trkpt lat="44.2093" lon="4.36364">
        <ele>292</ele>
        <time>2024-04-09T13:46:01+02:00</time>
      </trkpt>
      <trkpt lat="44.20943" lon="4.36347">
        <ele>292</ele>
        <time>2024-04-09T13:46:16+02:00</time>
      </trkpt>
      <trkpt lat="44.20949" lon="4.36309">
        <ele>290</ele>
        <time>2024-04-09T13:46:35+02:00</time>
      </trkpt>
      <trkpt lat="44.20963" lon="4.36293">
        <ele>290</ele>
        <time>2024-04-09T13:46:59+02:00</time>
      </trkpt>
      <trkpt lat="44.2097" lon="4.36248">
        <ele>287</ele>
        <time>2024-04-09T13:47:19+02:00</time>
      </trkpt>
      <trkpt lat="44.20998" lon="4.36215">
        <ele>289</ele>
        <time>2024-04-09T13:47:36+02:00</time>
      </trkpt>
      <trkpt lat="44.21006" lon="4.36175">
        <ele>289</ele>
        <time>2024-04-09T13:48:01+02:00</time>
      </trkpt>
      <trkpt lat="44.21021" lon="4.36146">
        <ele>289</ele>
        <time>2024-04-09T13:48:19+02:00</time>
      </trkpt>
      <trkpt lat="44.21036" lon="4.36118">
        <ele>290</ele>
        <time>2024-04-09T13:48:37+02:00</time>
      </trkpt>
      <trkpt lat="44.21057" lon="4.36094">
        <ele>292</ele>
        <time>2024-04-09T13:49:01+02:00</time>
      </trkpt>
      <trkpt lat="44.21076" lon="4.36056">
        <ele>294</ele>
        <time>2024-04-09T13:49:19+02:00</time>
      </trkpt>
      <trkpt lat="44.21096" lon="4.36029">
        <ele>296</ele>
        <time>2024-04-09T13:49:31+02:00</time>
      </trkpt>
      <trkpt lat="44.21108" lon="4.36008">
        <ele>297</ele>
        <time>2024-04-09T13:49:43+02:00</time>
      </trkpt>
      <trkpt lat="44.21123" lon="4.35993">
        <ele>297</ele>
        <time>2024-04-09T13:50:13+02:00</time>
      </trkpt>
      <trkpt lat="44.21134" lon="4.35974">
        <ele>298</ele>
        <time>2024-04-09T13:51:01+02:00</time>
      </trkpt>
      <trkpt lat="44.21158" lon="4.35955">
        <ele>299</ele>
        <time>2024-04-09T13:51:20+02:00</time>
      </trkpt>
      <trkpt lat="44.21169" lon="4.35928">
        <ele>300</ele>
        <time>2024-04-09T13:51:35+02:00</time>
      </trkpt>
      <trkpt lat="44.21187" lon="4.35904">
        <ele>300</ele>
        <time>2024-04-09T13:51:55+02:00</time>
      </trkpt>
      <trkpt lat="44.21206" lon="4.35886">
        <ele>300</ele>
        <time>2024-04-09T13:52:10+02:00</time>
      </trkpt>
      <trkpt lat="44.21224" lon="4.35862">
        <ele>300</ele>
        <time>2024-04-09T13:52:45+02:00</time>
      </trkpt>
      <trkpt lat="44.21258" lon="4.35836">
        <ele>300</ele>
        <time>2024-04-09T13:53:02+02:00</time>
      </trkpt>
      <trkpt lat="44.21276" lon="4.35815">
        <ele>301</ele>
        <time>2024-04-09T13:53:20+02:00</time>
      </trkpt>
      <trkpt lat="44.21299" lon="4.35794">
        <ele>301</ele>
        <time>2024-04-09T13:53:37+02:00</time>
      </trkpt>
      <trkpt lat="44.21317" lon="4.35767">
        <ele>301</ele>
        <time>2024-04-09T13:54:01+02:00</time>
      </trkpt>
      <trkpt lat="44.21343" lon="4.3574">
        <ele>301</ele>
        <time>2024-04-09T13:54:32+02:00</time>
      </trkpt>
      <trkpt lat="44.21363" lon="4.3572">
        <ele>301</ele>
        <time>2024-04-09T13:54:51+02:00</time>
      </trkpt>
      <trkpt lat="44.2139" lon="4.35691">
        <ele>301</ele>
        <time>2024-04-09T13:55:15+02:00</time>
      </trkpt>
      <trkpt lat="44.21422" lon="4.35642">
        <ele>302</ele>
        <time>2024-04-09T13:55:34+02:00</time>
      </trkpt>
      <trkpt lat="44.21448" lon="4.35619">
        <ele>303</ele>
        <time>2024-04-09T13:55:57+02:00</time>
      </trkpt>
      <trkpt lat="44.21465" lon="4.35596">
        <ele>303</ele>
        <time>2024-04-09T13:56:17+02:00</time>
      </trkpt>
      <trkpt lat="44.2148" lon="4.35589">
        <ele>303</ele>
        <time>2024-04-09T13:56:23+02:00</time>
      </trkpt>
      <trkpt lat="44.21498" lon="4.35567">
        <ele>303</ele>
        <time>2024-04-09T13:56:33+02:00</time>
      </trkpt>
      <trkpt lat="44.2152" lon="4.35556">
        <ele>304</ele>
        <time>2024-04-09T13:56:40+02:00</time>
      </trkpt>
      <trkpt lat="44.21644" lon="4.3546">
        <ele>304</ele>
        <time>2024-04-09T13:58:45+02:00</time>
      </trkpt>
      <trkpt lat="44.21656" lon="4.35431">
        <ele>305</ele>
        <time>2024-04-09T13:59:09+02:00</time>
      </trkpt>
      <trkpt lat="44.21658" lon="4.35402">
        <ele>306</ele>
        <time>2024-04-09T13:59:27+02:00</time>
      </trkpt>
      <trkpt lat="44.21676" lon="4.35347">
        <ele>307</ele>
      </trkpt>
      <trkpt lat="44.21677" lon="4.35293">
        <ele>308</ele>
      </trkpt>
      <trkpt lat="44.21668" lon="4.352">
        <ele>307</ele>
      </trkpt>
      <trkpt lat="44.21699" lon="4.35176">
        <ele>307</ele>
        <time>2024-04-09T14:01:21+02:00</time>
      </trkpt>
      <trkpt lat="44.21715" lon="4.3527">
        <ele>307</ele>
        <time>2024-04-09T14:02:09+02:00</time>
      </trkpt>
      <trkpt lat="44.21735" lon="4.35321">
        <ele>306</ele>
        <time>2024-04-09T14:03:05+02:00</time>
      </trkpt>
      <trkpt lat="44.21758" lon="4.35345">
        <ele>305</ele>
        <time>2024-04-09T14:03:23+02:00</time>
      </trkpt>
      <trkpt lat="44.21818" lon="4.35379">
        <ele>305</ele>
      </trkpt>
      <trkpt lat="44.21883" lon="4.35416">
        <ele>305</ele>
        <time>2024-04-09T14:05:03+02:00</time>
      </trkpt>
      <trkpt lat="44.21906" lon="4.35435">
        <ele>305</ele>
        <time>2024-04-09T14:05:21+02:00</time>
      </trkpt>
      <trkpt lat="44.21941" lon="4.35443">
        <ele>306</ele>
      </trkpt>
      <trkpt lat="44.21985" lon="4.35445">
        <ele>308</ele>
      </trkpt>
      <trkpt lat="44.22038" lon="4.35437">
        <ele>309</ele>
        <time>2024-04-09T14:06:51+02:00</time>
      </trkpt>
      <trkpt lat="44.22085" lon="4.35412">
        <ele>310</ele>
        <time>2024-04-09T14:07:45+02:00</time>
      </trkpt>
      <trkpt lat="44.22129" lon="4.35375">
        <ele>309</ele>
      </trkpt>
      <trkpt lat="44.22153" lon="4.35347">
        <ele>308</ele>
      </trkpt>
      <trkpt lat="44.22189" lon="4.35296">
        <ele>308</ele>
        <time>2024-04-09T14:09:21+02:00</time>
      </trkpt>
      <trkpt lat="44.22198" lon="4.35263">
        <ele>307</ele>
        <time>2024-04-09T14:09:39+02:00</time>
      </trkpt>
      <trkpt lat="44.22217" lon="4.35232">
        <ele>308</ele>
        <time>2024-04-09T14:09:52+02:00</time>
      </trkpt>
      <trkpt lat="44.22236" lon="4.35203">
        <ele>308</ele>
        <time>2024-04-09T14:10:11+02:00</time>
      </trkpt>
      <trkpt lat="44.22258" lon="4.35154">
        <ele>309</ele>
        <time>2024-04-09T14:10:29+02:00</time>
      </trkpt>
      <trkpt lat="44.22277" lon="4.35134">
        <ele>308</ele>
        <time>2024-04-09T14:10:47+02:00</time>
      </trkpt>
      <trkpt lat="44.22305" lon="4.35115">
        <ele>307</ele>
        <time>2024-04-09T14:11:15+02:00</time>
      </trkpt>
      <trkpt lat="44.22333" lon="4.35102">
        <ele>306</ele>
        <time>2024-04-09T14:11:33+02:00</time>
      </trkpt>
      <trkpt lat="44.22367" lon="4.35104">
        <ele>306</ele>
        <time>2024-04-09T14:11:50+02:00</time>
      </trkpt>
      <trkpt lat="44.22392" lon="4.35102">
        <ele>306</ele>
        <time>2024-04-09T14:12:03+02:00</time>
      </trkpt>
      <trkpt lat="44.22416" lon="4.35102">
        <ele>306</ele>
        <time>2024-04-09T14:12:21+02:00</time>
      </trkpt>
      <trkpt lat="44.22445" lon="4.35101">
        <ele>305</ele>
        <time>2024-04-09T14:12:51+02:00</time>
      </trkpt>
      <trkpt lat="44.22467" lon="4.35106">
        <ele>305</ele>
        <time>2024-04-09T14:13:21+02:00</time>
      </trkpt>
      <trkpt lat="44.22492" lon="4.35105">
        <ele>305</ele>
        <time>2024-04-09T14:13:39+02:00</time>
      </trkpt>
      <trkpt lat="44.22517" lon="4.35097">
        <ele>304</ele>
        <time>2024-04-09T14:13:57+02:00</time>
      </trkpt>
      <trkpt lat="44.22538" lon="4.35078">
        <ele>303</ele>
        <time>2024-04-09T14:14:15+02:00</time>
      </trkpt>
      <trkpt lat="44.22561" lon="4.3508">
        <ele>302</ele>
        <time>2024-04-09T14:14:27+02:00</time>
      </trkpt>
      <trkpt lat="44.22582" lon="4.35066">
        <ele>302</ele>
        <time>2024-04-09T14:14:58+02:00</time>
      </trkpt>
      <trkpt lat="44.22584" lon="4.35066">
        <ele>302</ele>
        <time>2024-04-09T14:19:35+02:00</time>
      </trkpt>
      <trkpt lat="44.22596" lon="4.35031">
        <ele>301</ele>
        <time>2024-04-09T14:21:17+02:00</time>
      </trkpt>
      <trkpt lat="44.22592" lon="4.35027">
        <ele>301</ele>
        <time>2024-04-09T16:09:30+02:00</time>
      </trkpt>
    </trkseg>
  </trk>
</gpx>